Time;durP1;ratioP1;P1;durP2;ratioP2;P2;SDS_P1;SDS_P2;PMS_P1;PMS_P2;Temp;Humidity;BMP_temperature;BMP_pressure;BME280_temperature;BME280_humidity;BME280_pressure;Samples;Min_cycle;Max_cycle;Signal;HPM_P1;HPM_P2
2023/09/06 00:00:14;;;;;;;0.00;0.00;;;;;;;16.97;100.00;97002.56;4945336;28;20491;-76
2023/09/06 00:03:00;;;;;;;0.00;0.00;;;;;;;17.03;100.00;97003.34;4945446;28;20528;-76
2023/09/06 00:05:46;;;;;;;0.05;0.05;;;;;;;17.02;100.00;97004.44;4931977;28;20047;-75
2023/09/06 00:08:34;;;;;;;0.00;0.00;;;;;;;17.03;100.00;96996.03;4942088;28;20047;-75
2023/09/06 00:11:20;;;;;;;0.00;0.00;;;;;;;17.05;100.00;96995.78;4931294;28;20049;-75
2023/09/06 00:14:06;;;;;;;0.00;0.00;;;;;;;17.04;100.00;96996.84;4927485;28;20750;-75
2023/09/06 00:16:51;;;;;;;0.00;0.00;;;;;;;17.04;100.00;97000.34;4943467;28;20039;-75
2023/09/06 00:19:37;;;;;;;0.00;0.00;;;;;;;17.03;100.00;96990.63;4945561;28;20054;-75
2023/09/06 00:22:23;;;;;;;0.00;0.00;;;;;;;16.99;100.00;96987.69;4944469;28;20051;-75
2023/09/06 00:25:09;;;;;;;0.08;0.08;;;;;;;16.91;100.00;96979.34;4943842;28;20104;-75
2023/09/06 00:27:55;;;;;;;0.00;0.00;;;;;;;16.92;100.00;96986.38;4941119;28;20133;-75
2023/09/06 00:30:44;;;;;;;0.00;0.00;;;;;;;16.89;100.00;96990.44;4944899;28;20339;-75
2023/09/06 00:33:33;;;;;;;0.00;0.00;;;;;;;16.85;100.00;96988.53;4943387;28;20085;-75
2023/09/06 00:36:21;;;;;;;0.00;0.00;;;;;;;16.80;100.00;96983.94;4929854;28;20058;-77
2023/09/06 00:39:07;;;;;;;0.00;0.00;;;;;;;16.76;100.00;96984.78;4941900;28;20062;-76
2023/09/06 00:41:53;;;;;;;0.10;0.10;;;;;;;16.72;100.00;96979.13;4941918;28;20079;-77
2023/09/06 00:44:40;;;;;;;0.05;0.05;;;;;;;16.67;100.00;96979.13;4944328;28;20062;-77
2023/09/06 00:47:26;;;;;;;0.00;0.00;;;;;;;16.66;100.00;96980.22;4942754;28;20142;-77
2023/09/06 00:50:14;;;;;;;0.00;0.00;;;;;;;16.55;100.00;96976.72;4943555;28;20112;-77
2023/09/06 00:53:03;;;;;;;0.00;0.00;;;;;;;16.57;100.00;96988.03;4940463;28;20061;-77
2023/09/06 00:55:49;;;;;;;0.00;0.00;;;;;;;16.53;100.00;96984.28;4943624;28;20160;-77
2023/09/06 00:58:36;;;;;;;0.10;0.10;;;;;;;16.50;100.00;96984.00;4931402;28;20050;-77
2023/09/06 01:01:22;;;;;;;0.00;0.00;;;;;;;16.47;100.00;96988.06;4942458;28;20055;-77
2023/09/06 01:04:08;;;;;;;0.00;0.00;;;;;;;16.42;100.00;96994.31;4937159;28;20110;-77
2023/09/06 01:06:58;;;;;;;0.10;0.10;;;;;;;16.35;100.00;96982.97;4926495;28;20131;-75
2023/09/06 01:09:44;;;;;;;0.00;0.00;;;;;;;16.29;100.00;96984.06;4934116;28;20047;-75
2023/09/06 01:12:30;;;;;;;0.10;0.10;;;;;;;16.31;100.00;96994.56;4936225;28;20054;-75
2023/09/06 01:15:16;;;;;;;0.10;0.10;;;;;;;16.26;100.00;96984.56;4941810;28;20038;-76
2023/09/06 01:18:05;;;;;;;0.00;0.00;;;;;;;16.29;100.00;96981.34;4942185;28;20046;-76
2023/09/06 01:21:04;;;;;;;0.00;0.00;;;;;;;16.32;100.00;96986.19;4944047;28;20153;-76
2023/09/06 01:23:51;;;;;;;0.00;0.00;;;;;;;16.27;100.00;96985.41;4930277;28;20135;-76
2023/09/06 01:26:37;;;;;;;0.03;0.03;;;;;;;16.29;100.00;96984.06;4942420;28;20039;-76
2023/09/06 01:29:23;;;;;;;0.10;0.10;;;;;;;16.23;100.00;96976.22;4941516;28;20089;-76
2023/09/06 01:32:09;;;;;;;0.10;0.10;;;;;;;16.23;100.00;96989.72;4930496;28;20053;-76
2023/09/06 01:34:55;;;;;;;0.00;0.00;;;;;;;16.15;100.00;96989.19;4942593;28;20047;-76
2023/09/06 01:37:41;;;;;;;0.00;0.00;;;;;;;16.08;100.00;96983.25;4943427;28;20681;-75
2023/09/06 01:40:27;;;;;;;0.00;0.00;;;;;;;16.06;100.00;96987.31;4931757;28;20337;-75
2023/09/06 01:43:13;;;;;;;0.10;0.10;;;;;;;16.00;100.00;96975.69;4940070;28;20559;-76
2023/09/06 01:46:00;;;;;;;0.10;0.10;;;;;;;15.92;100.00;96978.13;4930964;28;20035;-76
2023/09/06 01:48:46;;;;;;;0.00;0.00;;;;;;;15.84;100.00;96985.69;4941960;28;20138;-76
2023/09/06 01:51:32;;;;;;;0.10;0.10;;;;;;;15.72;100.00;96982.44;4934025;28;20114;-76
2023/09/06 01:54:18;;;;;;;0.03;0.03;;;;;;;15.65;100.00;96967.59;4927874;28;20574;-75
2023/09/06 01:57:06;;;;;;;0.00;0.00;;;;;;;15.63;100.00;96975.13;4940969;28;20137;-75
2023/09/06 01:59:52;;;;;;;0.00;0.00;;;;;;;15.66;100.00;96975.41;4925695;28;20042;-77
2023/09/06 02:02:37;;;;;;;0.00;0.00;;;;;;;15.68;100.00;96980.53;4930636;28;20055;-77
2023/09/06 02:05:23;;;;;;;0.00;0.00;;;;;;;15.72;100.00;96982.44;4941262;28;20102;-76
2023/09/06 02:08:11;;;;;;;0.00;0.00;;;;;;;15.84;100.00;96979.47;4932422;28;20047;-76
2023/09/06 02:10:56;;;;;;;0.03;0.03;;;;;;;15.93;100.00;96982.44;4942913;28;20066;-76
2023/09/06 02:13:42;;;;;;;0.00;0.00;;;;;;;15.95;100.00;96982.97;4929917;28;20459;-76
2023/09/06 02:16:30;;;;;;;0.00;0.00;;;;;;;15.93;100.00;96988.66;4943853;28;20734;-76
2023/09/06 02:19:17;;;;;;;0.00;0.00;;;;;;;15.91;100.00;96990.00;4927932;28;20039;-76
2023/09/06 02:22:04;;;;;;;0.00;0.00;;;;;;;15.85;100.00;96984.59;4942624;28;20789;-76
2023/09/06 02:24:49;;;;;;;0.00;0.00;;;;;;;15.88;100.00;96984.06;4930113;28;20117;-76
2023/09/06 02:27:37;;;;;;;0.10;0.10;;;;;;;15.83;100.00;96992.16;4941631;28;20094;-76
2023/09/06 02:30:22;;;;;;;0.08;0.08;;;;;;;15.76;100.00;96988.09;4927275;28;20047;-76
2023/09/06 02:33:11;;;;;;;0.00;0.00;;;;;;;15.69;100.00;96985.66;4941369;28;20050;-77
2023/09/06 02:35:58;;;;;;;0.05;0.05;;;;;;;15.62;100.00;96990.50;4935042;28;20047;-78
2023/09/06 02:38:43;;;;;;;0.10;0.10;;;;;;;15.54;100.00;96991.81;4927188;28;20074;-78
2023/09/06 02:41:29;;;;;;;0.00;0.00;;;;;;;15.51;100.00;96996.94;4941895;28;20471;-77
2023/09/06 02:44:16;;;;;;;0.10;0.10;;;;;;;15.29;100.00;96995.25;4940560;28;20508;-78
2023/09/06 02:47:03;;;;;;;0.00;0.00;;;;;;;15.14;100.00;96995.22;4927251;28;20054;-77
2023/09/06 02:49:49;;;;;;;0.00;0.00;;;;;;;15.05;100.00;96992.22;4944711;28;20043;-77
2023/09/06 02:52:35;;;;;;;0.00;0.00;;;;;;;15.03;100.00;96996.25;4938955;28;20058;-77
2023/09/06 02:55:23;;;;;;;0.10;0.10;;;;;;;15.09;100.00;96999.75;4930734;28;20042;-77
2023/09/06 02:58:09;;;;;;;0.10;0.10;;;;;;;15.07;100.00;96997.34;4944169;28;20129;-77
2023/09/06 03:00:57;;;;;;;0.00;0.00;;;;;;;15.09;100.00;96991.69;4936911;28;20500;-78
2023/09/06 03:03:43;;;;;;;0.00;0.00;;;;;;;15.03;100.00;96998.97;4931168;28;20105;-77
2023/09/06 03:06:37;;;;;;;0.10;0.10;;;;;;;14.88;100.00;96990.81;4945231;28;20092;-78
2023/09/06 03:09:28;;;;;;;0.00;0.00;;;;;;;14.83;100.00;96986.19;4930763;28;20050;-78
2023/09/06 03:12:16;;;;;;;0.05;0.05;;;;;;;14.68;100.00;96988.81;4929181;28;20047;-77
2023/09/06 03:15:08;;;;;;;0.00;0.00;;;;;;;14.73;100.00;96995.03;4944065;28;20058;-77
2023/09/06 03:17:58;;;;;;;0.10;0.10;;;;;;;14.66;100.00;96999.03;4931637;28;20043;-77
2023/09/06 03:20:44;;;;;;;0.00;0.00;;;;;;;14.56;100.00;96991.72;4937980;28;20049;-77
2023/09/06 03:23:38;;;;;;;0.10;0.10;;;;;;;14.53;100.00;96994.91;4934072;28;20137;-77
2023/09/06 03:26:27;;;;;;;0.00;0.00;;;;;;;14.57;100.00;96996.03;4931744;28;21242;-77
2023/09/06 03:29:15;;;;;;;0.00;0.00;;;;;;;14.52;100.00;97000.56;4931085;28;20078;-77
2023/09/06 03:32:05;;;;;;;0.10;0.10;;;;;;;14.57;100.00;96992.53;4935257;28;20047;-77
2023/09/06 03:34:51;;;;;;;0.10;0.10;;;;;;;14.49;100.00;96991.16;4934976;28;20035;-77
2023/09/06 03:37:37;;;;;;;0.03;0.03;;;;;;;14.57;100.00;96996.03;4933691;28;20125;-77
2023/09/06 03:40:32;;;;;;;0.08;0.08;;;;;;;14.56;100.00;96996.31;4934902;28;20047;-77
2023/09/06 03:43:29;;;;;;;0.13;0.13;;;;;;;14.49;100.00;97001.91;4943503;28;20130;-77
2023/09/06 03:46:16;;;;;;;0.10;0.10;;;;;;;14.53;100.00;97004.88;4946042;28;20051;-77
2023/09/06 03:49:06;;;;;;;0.10;0.10;;;;;;;14.49;100.00;96997.34;4941840;28;20035;-77
2023/09/06 03:51:52;;;;;;;0.00;0.00;;;;;;;14.48;100.00;97003.00;4929575;28;20058;-77
2023/09/06 03:54:38;;;;;;;0.10;0.10;;;;;;;14.54;100.00;97006.50;4938985;28;20128;-77
2023/09/06 03:57:25;;;;;;;0.10;0.10;;;;;;;14.48;100.00;97013.75;4931405;28;20039;-77
2023/09/06 04:00:31;;;;;;;0.10;0.10;;;;;;;14.51;100.00;97007.84;4940821;28;20058;-77
2023/09/06 04:03:30;;;;;;;0.00;0.00;;;;;;;14.52;100.00;97014.03;4934247;28;20081;-77
2023/09/06 04:06:16;;;;;;;0.00;0.00;;;;;;;14.39;100.00;97018.75;4938026;28;20184;-77
2023/09/06 04:09:05;;;;;;;0.00;0.00;;;;;;;14.31;100.00;97013.84;4926894;28;20047;-77
2023/09/06 04:11:51;;;;;;;0.00;0.00;;;;;;;14.23;100.00;97007.06;4938779;28;20094;-77
2023/09/06 04:14:38;;;;;;;0.10;0.10;;;;;;;14.25;100.00;97012.22;4921204;28;20147;-77
2023/09/06 04:17:28;;;;;;;0.00;0.00;;;;;;;14.23;100.00;97017.03;4933669;28;20148;-77
2023/09/06 04:20:20;;;;;;;0.10;0.10;;;;;;;14.20;100.00;97013.00;4932011;28;20346;-77
2023/09/06 04:23:08;;;;;;;0.10;0.10;;;;;;;14.15;100.00;97015.63;4931600;28;20364;-77
2023/09/06 04:25:58;;;;;;;0.10;0.10;;;;;;;14.11;100.00;97013.72;4932950;28;20575;-77
2023/09/06 04:28:49;;;;;;;0.10;0.10;;;;;;;14.10;100.00;97017.50;4937665;28;20927;-76
2023/09/06 04:31:36;;;;;;;0.10;0.10;;;;;;;14.03;100.00;97028.47;4935243;28;20042;-77
2023/09/06 04:34:22;;;;;;;0.00;0.00;;;;;;;14.00;100.00;97022.75;4931477;28;20043;-77
2023/09/06 04:37:12;;;;;;;0.03;0.03;;;;;;;13.95;100.00;97026.25;4931905;28;20070;-77
2023/09/06 04:40:00;;;;;;;0.10;0.10;;;;;;;13.91;100.00;97035.88;4935925;28;20897;-77
2023/09/06 04:42:49;;;;;;;0.10;0.10;;;;;;;13.86;100.00;97030.47;4931572;28;20492;-77
2023/09/06 04:45:39;;;;;;;0.10;0.10;;;;;;;13.86;100.00;97028.59;4927439;28;20051;-77
2023/09/06 04:48:25;;;;;;;0.00;0.00;;;;;;;13.85;100.00;97036.88;4935527;28;20042;-77
2023/09/06 04:51:15;;;;;;;0.10;0.10;;;;;;;13.83;100.00;97036.34;4936881;28;20046;-77
2023/09/06 04:54:04;;;;;;;0.00;0.00;;;;;;;13.77;100.00;97029.28;4925842;28;20051;-77
2023/09/06 04:56:54;;;;;;;0.10;0.10;;;;;;;13.73;100.00;97039.75;4932367;28;20046;-77
2023/09/06 04:59:42;;;;;;;0.05;0.05;;;;;;;13.75;100.00;97042.19;4934044;28;20051;-77
2023/09/06 05:02:28;;;;;;;0.10;0.10;;;;;;;13.78;100.00;97047.88;4930517;28;20051;-77
2023/09/06 05:05:15;;;;;;;0.10;0.10;;;;;;;13.79;100.00;97040.63;4934510;28;20094;-77
2023/09/06 05:08:01;;;;;;;0.00;0.00;;;;;;;13.77;100.00;97040.84;4946153;28;20039;-75
2023/09/06 05:10:51;;;;;;;0.10;0.10;;;;;;;13.83;100.00;97055.16;4946087;28;20062;-77
2023/09/06 05:13:39;;;;;;;0.00;0.00;;;;;;;13.85;100.00;97047.66;4933055;28;20133;-78
2023/09/06 05:16:26;;;;;;;0.10;0.10;;;;;;;13.88;100.00;97050.66;4933466;28;20535;-78
2023/09/06 05:19:13;;;;;;;0.10;0.10;;;;;;;13.85;100.00;97051.19;4922458;28;20112;-78
2023/09/06 05:21:59;;;;;;;0.10;0.10;;;;;;;13.95;100.00;97045.06;4939207;28;20455;-78
2023/09/06 05:24:46;;;;;;;0.00;0.00;;;;;;;14.12;100.00;97042.25;4931437;28;20051;-78
2023/09/06 05:27:31;;;;;;;0.10;0.10;;;;;;;14.24;100.00;97040.22;4942289;28;20051;-78
2023/09/06 05:30:18;;;;;;;0.10;0.10;;;;;;;14.36;100.00;97045.41;4944260;28;20047;-78
2023/09/06 05:33:06;;;;;;;0.10;0.10;;;;;;;14.53;100.00;97043.41;4937472;28;20138;-78
2023/09/06 05:35:54;;;;;;;0.10;0.10;;;;;;;14.68;100.00;97045.38;4932404;28;20046;-78
2023/09/06 05:38:40;;;;;;;0.10;0.10;;;;;;;14.84;100.00;97047.09;4944095;28;20519;-78
2023/09/06 05:41:27;;;;;;;0.10;0.10;;;;;;;14.90;100.00;97047.94;4920930;28;20062;-78
2023/09/06 05:44:13;;;;;;;0.10;0.10;;;;;;;14.96;100.00;97057.66;4935487;28;20759;-78
2023/09/06 05:46:59;;;;;;;0.10;0.10;;;;;;;15.07;100.00;97059.34;4944148;28;20420;-78
2023/09/06 05:49:46;;;;;;;0.03;0.03;;;;;;;15.04;100.00;97049.09;4923576;28;20440;-78
2023/09/06 05:52:34;;;;;;;0.00;0.00;;;;;;;15.11;100.00;97056.94;4934541;28;20626;-78
2023/09/06 05:55:23;;;;;;;0.00;0.00;;;;;;;15.17;100.00;97056.66;4936295;28;20051;-78
2023/09/06 05:58:10;;;;;;;0.10;0.10;;;;;;;15.25;100.00;97055.34;4935547;28;20827;-78
2023/09/06 06:00:57;;;;;;;0.10;0.08;;;;;;;15.34;100.00;97056.50;4936364;28;20139;-79
2023/09/06 06:03:43;;;;;;;0.10;0.10;;;;;;;15.40;100.00;97062.69;4937927;28;20039;-79
2023/09/06 06:06:29;;;;;;;0.10;0.10;;;;;;;15.54;100.00;97061.13;4935867;28;20054;-79
2023/09/06 06:09:15;;;;;;;0.10;0.10;;;;;;;15.62;100.00;97067.94;4943847;28;20053;-79
2023/09/06 06:12:03;;;;;;;0.00;0.00;;;;;;;15.69;100.00;97069.28;4943358;28;20453;-79
2023/09/06 06:14:52;;;;;;;0.10;0.10;;;;;;;15.73;100.00;97066.91;4945837;28;20039;-79
2023/09/06 06:17:38;;;;;;;0.00;0.00;;;;;;;15.75;100.00;97068.22;4942504;28;20621;-79
2023/09/06 06:20:24;;;;;;;0.10;0.10;;;;;;;15.79;100.00;97072.00;4943271;28;20050;-80
2023/09/06 06:23:10;;;;;;;0.10;0.10;;;;;;;15.83;100.00;97083.91;4942988;28;20047;-80
2023/09/06 06:25:55;;;;;;;0.10;0.10;;;;;;;15.89;100.00;97082.03;4945877;28;20046;-79
2023/09/06 06:28:41;;;;;;;0.00;0.00;;;;;;;15.93;100.00;97082.28;4947688;28;20047;-79
2023/09/06 06:31:28;;;;;;;0.10;0.10;;;;;;;16.01;100.00;97085.28;4947282;28;20497;-80
2023/09/06 06:34:14;;;;;;;0.00;0.00;;;;;;;16.13;100.00;97085.03;4945933;28;20055;-78
2023/09/06 06:37:00;;;;;;;0.10;0.10;;;;;;;16.21;100.00;97079.09;4947919;28;20043;-79
2023/09/06 06:39:46;;;;;;;0.00;0.00;;;;;;;16.40;100.00;97088.28;4943583;28;20046;-79
2023/09/06 06:42:32;;;;;;;0.00;0.00;;;;;;;16.42;100.00;97086.13;4947662;28;20137;-79
2023/09/06 06:45:20;;;;;;;0.10;0.10;;;;;;;16.48;100.00;97088.81;4939870;28;20047;-79
2023/09/06 06:48:06;;;;;;;0.10;0.10;;;;;;;16.58;100.00;97094.22;4944329;28;20043;-79
2023/09/06 06:50:54;;;;;;;0.10;0.10;;;;;;;16.62;100.00;97088.00;4948040;28;20532;-78
2023/09/06 06:53:40;;;;;;;0.10;0.10;;;;;;;16.71;100.00;97088.28;4946328;28;20269;-79
2023/09/06 06:56:26;;;;;;;0.10;0.10;;;;;;;16.80;100.00;97099.34;4946053;28;20069;-79
2023/09/06 06:59:13;;;;;;;0.10;0.10;;;;;;;16.88;100.00;97104.22;4932107;28;20388;-79
2023/09/06 07:01:58;;;;;;;0.10;0.10;;;;;;;16.97;100.00;97100.69;4946304;28;20049;-79
2023/09/06 07:04:44;;;;;;;0.03;0.03;;;;;;;17.05;100.00;97093.91;4947909;28;20071;-79
2023/09/06 07:07:30;;;;;;;0.10;0.10;;;;;;;17.16;100.00;97095.50;4947392;28;20061;-79
2023/09/06 07:10:16;;;;;;;0.10;0.10;;;;;;;17.32;100.00;97101.66;4945894;28;20535;-79
2023/09/06 07:13:02;;;;;;;0.00;0.00;;;;;;;17.50;100.00;97103.75;4946303;28;20042;-78
2023/09/06 07:15:48;;;;;;;0.10;0.10;;;;;;;17.59;100.00;97111.28;4948231;28;20747;-78
2023/09/06 07:18:34;;;;;;;0.10;0.10;;;;;;;17.64;100.00;97105.88;4947239;28;20050;-78
2023/09/06 07:21:20;;;;;;;0.10;0.10;;;;;;;17.75;100.00;97112.91;4945293;28;20490;-79
2023/09/06 07:24:09;;;;;;;0.10;0.10;;;;;;;17.83;100.00;97111.50;4944985;28;20267;-79
2023/09/06 07:26:55;;;;;;;0.10;0.10;;;;;;;17.93;100.00;97103.31;4946273;28;20043;-79
2023/09/06 07:29:41;;;;;;;0.10;0.10;;;;;;;18.02;100.00;97110.56;4947400;28;20050;-78
2023/09/06 07:32:27;;;;;;;0.10;0.10;;;;;;;18.07;100.00;97104.31;4944710;28;20062;-79
2023/09/06 07:35:13;;;;;;;0.10;0.10;;;;;;;18.25;100.00;97105.56;4947873;28;20046;-79
2023/09/06 07:38:00;;;;;;;0.10;0.10;;;;;;;18.45;100.00;97110.84;4946378;28;20415;-79
2023/09/06 07:40:45;;;;;;;0.15;0.15;;;;;;;18.59;100.00;97106.34;4922478;28;20050;-79
2023/09/06 07:43:32;;;;;;;0.10;0.10;;;;;;;18.79;100.00;97102.69;4947753;28;20498;-79
2023/09/06 07:46:24;;;;;;;0.10;0.10;;;;;;;18.96;100.00;97107.69;4946660;28;20130;-79
2023/09/06 07:49:09;;;;;;;0.00;0.00;;;;;;;19.01;100.00;97109.56;4935344;28;20040;-79
2023/09/06 07:51:55;;;;;;;0.00;0.00;;;;;;;19.04;100.00;97107.06;4947689;28;20047;-79
2023/09/06 07:54:43;;;;;;;0.10;0.10;;;;;;;19.13;100.00;97115.38;4952653;28;20106;-78
2023/09/06 07:57:29;;;;;;;0.00;0.00;;;;;;;19.24;100.00;97111.47;4948613;28;20061;-78
2023/09/06 08:00:16;;;;;;;0.10;0.10;;;;;;;19.37;100.00;97112.66;4936149;28;20042;-79
2023/09/06 08:03:03;;;;;;;0.03;0.03;;;;;;;19.47;100.00;97115.28;4950129;28;20678;-79
2023/09/06 08:05:49;;;;;;;0.10;0.10;;;;;;;19.55;100.00;97109.22;4947087;28;20074;-79
2023/09/06 08:08:37;;;;;;;0.10;0.10;;;;;;;19.57;100.00;97101.63;4953198;28;20357;-79
2023/09/06 08:11:23;;;;;;;0.10;0.10;;;;;;;19.74;100.00;97110.06;4952519;28;20082;-79
2023/09/06 08:14:09;;;;;;;0.20;0.20;;;;;;;19.85;100.00;97112.69;4951728;28;20541;-78
2023/09/06 08:16:55;;;;;;;0.10;0.10;;;;;;;19.98;100.00;97103.78;4951477;28;20074;-79
2023/09/06 08:19:41;;;;;;;0.10;0.10;;;;;;;20.07;100.00;97117.50;4953908;28;20093;-79
2023/09/06 08:22:27;;;;;;;0.10;0.10;;;;;;;20.23;100.00;97117.03;4951151;28;20066;-78
2023/09/06 08:25:14;;;;;;;0.10;0.10;;;;;;;20.26;100.00;97121.06;4949840;28;20169;-78
2023/09/06 08:28:00;;;;;;;0.05;0.05;;;;;;;20.43;100.00;97120.53;4951124;28;20539;-79
2023/09/06 08:30:46;;;;;;;0.10;0.10;;;;;;;20.54;100.00;97117.41;4949612;28;20043;-78
2023/09/06 08:33:33;;;;;;;0.10;0.10;;;;;;;20.49;100.00;97120.19;4945814;28;20066;-78
2023/09/06 08:36:18;;;;;;;0.10;0.10;;;;;;;20.57;100.00;97124.13;4950893;28;20042;-79
2023/09/06 08:39:06;;;;;;;0.10;0.10;;;;;;;20.66;100.00;97114.19;4949451;28;20046;-78
2023/09/06 08:41:55;;;;;;;0.00;0.00;;;;;;;20.74;100.00;97120.88;4950607;28;20142;-80
2023/09/06 08:44:46;;;;;;;0.10;0.10;;;;;;;20.88;100.00;97115.47;4956012;28;20042;-79
2023/09/06 08:47:32;;;;;;;0.10;0.10;;;;;;;20.94;100.00;97112.38;4941883;28;20054;-79
2023/09/06 08:50:19;;;;;;;0.10;0.10;;;;;;;21.13;100.00;97123.19;4952459;28;20432;-79
2023/09/06 08:53:05;;;;;;;0.10;0.10;;;;;;;21.17;100.00;97110.59;4952789;28;20137;-79
2023/09/06 08:55:52;;;;;;;0.00;0.00;;;;;;;21.31;100.00;97116.06;4940564;28;20526;-79
2023/09/06 08:58:39;;;;;;;0.10;0.10;;;;;;;21.36;100.00;97107.81;4939802;28;20049;-79
2023/09/06 09:01:25;;;;;;;0.10;0.10;;;;;;;21.46;100.00;97115.75;4936071;28;20330;-79
2023/09/06 09:04:12;;;;;;;0.10;0.10;;;;;;;21.48;100.00;97107.28;4949098;28;20054;-79
2023/09/06 09:06:58;;;;;;;0.10;0.10;;;;;;;21.61;100.00;97111.94;4932863;28;20477;-79
2023/09/06 09:10:04;;;;;;;0.10;0.10;;;;;;;21.75;100.00;97115.47;4947563;28;20134;-79
2023/09/06 09:12:51;;;;;;;0.10;0.10;;;;;;;21.78;100.00;97120.28;4945715;28;20065;-79
2023/09/06 09:15:37;;;;;;;0.10;0.10;;;;;;;21.75;94.55;97118.19;4945657;28;20062;-79
2023/09/06 09:18:23;;;;;;;0.10;0.10;;;;;;;21.80;96.39;97114.56;4946130;28;20070;-79
2023/09/06 09:21:10;;;;;;;0.10;0.10;;;;;;;21.72;93.11;97116.06;4943889;28;20035;-79
2023/09/06 09:23:57;;;;;;;0.10;0.10;;;;;;;21.93;98.85;97114.50;4948360;28;20043;-80
2023/09/06 09:26:43;;;;;;;0.00;0.00;;;;;;;22.12;96.32;97105.44;4947209;28;20050;-80
2023/09/06 09:29:29;;;;;;;0.10;0.10;;;;;;;22.20;95.92;97112.88;4947454;28;20043;-80
2023/09/06 09:32:15;;;;;;;0.00;0.00;;;;;;;22.25;94.27;97115.47;4933471;28;21285;-80
2023/09/06 09:35:02;;;;;;;0.03;0.03;;;;;;;22.26;93.24;97106.22;4945138;28;20122;-80
2023/09/06 09:37:51;;;;;;;0.00;0.00;;;;;;;22.42;93.26;97117.56;4948269;28;20603;-79
2023/09/06 09:40:37;;;;;;;0.10;0.10;;;;;;;22.49;91.95;97113.28;4946394;28;20678;-79
2023/09/06 09:43:23;;;;;;;0.10;0.10;;;;;;;22.53;90.31;97102.56;4945084;28;20102;-79
2023/09/06 09:46:09;;;;;;;0.10;0.10;;;;;;;22.43;88.72;97111.78;4945304;28;20047;-79
2023/09/06 09:48:59;;;;;;;0.00;0.00;;;;;;;22.54;88.37;97117.81;4944577;28;20047;-79
2023/09/06 09:51:48;;;;;;;0.00;0.00;;;;;;;22.66;87.36;97126.25;4946306;28;20076;-79
2023/09/06 09:54:38;;;;;;;0.00;0.00;;;;;;;22.73;88.66;97125.81;4945306;28;20114;-79
2023/09/06 09:57:26;;;;;;;0.03;0.03;;;;;;;22.69;87.80;97130.25;4945010;28;20432;-79
2023/09/06 10:00:17;;;;;;;0.00;0.00;;;;;;;22.86;86.95;97130.41;4950815;28;20492;-79
2023/09/06 10:03:04;;;;;;;0.10;0.10;;;;;;;23.03;89.95;97129.69;4941759;28;20161;-79
2023/09/06 10:05:51;;;;;;;0.10;0.10;;;;;;;23.25;89.42;97126.94;4947798;28;20035;-79
2023/09/06 10:08:39;;;;;;;0.10;0.10;;;;;;;23.36;87.95;97127.47;4947870;28;20044;-79
2023/09/06 10:11:26;;;;;;;0.10;0.10;;;;;;;23.69;90.28;97124.41;4947197;28;20645;-79
2023/09/06 10:14:15;;;;;;;0.10;0.10;;;;;;;23.84;92.67;97122.03;4932918;28;20479;-79
2023/09/06 10:17:01;;;;;;;0.17;0.17;;;;;;;23.74;88.70;97119.63;4947939;28;20050;-79
2023/09/06 10:19:47;;;;;;;0.00;0.00;;;;;;;24.07;86.22;97125.47;4949701;28;20461;-79
2023/09/06 10:22:33;;;;;;;0.10;0.10;;;;;;;24.48;88.22;97116.03;4949497;28;20073;-80
2023/09/06 10:25:19;;;;;;;0.10;0.10;;;;;;;24.70;86.91;97115.84;4947392;28;20047;-80
2023/09/06 10:28:05;;;;;;;0.08;0.08;;;;;;;25.15;88.22;97120.16;4951351;28;20544;-80
2023/09/06 10:31:02;;;;;;;0.10;0.10;;;;;;;25.03;84.86;97123.53;4948608;28;20122;-79
2023/09/06 10:33:52;;;;;;;0.10;0.10;;;;;;;25.18;79.38;97112.06;4927973;28;20085;-79
2023/09/06 10:36:54;;;;;;;0.10;0.10;;;;;;;26.05;76.79;97107.00;4946906;28;20050;-79
2023/09/06 10:39:52;;;;;;;0.10;0.10;;;;;;;27.36;63.67;97112.94;4947071;28;20045;-79
2023/09/06 10:42:38;;;;;;;0.10;0.10;;;;;;;29.30;61.91;97110.13;4946624;28;20471;-79
2023/09/06 10:45:24;;;;;;;0.10;0.10;;;;;;;31.57;42.80;97093.31;4945094;28;20047;-79
2023/09/06 10:48:10;;;;;;;0.20;0.20;;;;;;;33.43;37.69;97093.78;4943711;28;20043;-80
2023/09/06 10:51:07;;;;;;;0.10;0.10;;;;;;;33.55;34.07;97095.50;4946649;28;20058;-80
2023/09/06 10:53:55;;;;;;;0.10;0.10;;;;;;;32.61;35.20;97092.88;4941404;28;20047;-80
2023/09/06 10:56:50;;;;;;;0.10;0.10;;;;;;;32.41;35.43;97104.09;4951492;28;20047;-80
2023/09/06 10:59:40;;;;;;;0.10;0.10;;;;;;;33.10;36.14;97098.22;4949383;28;20305;-80
2023/09/06 11:02:26;;;;;;;0.10;0.10;;;;;;;34.47;31.36;97087.78;4947424;28;20087;-80
2023/09/06 11:05:31;;;;;;;0.10;0.10;;;;;;;34.39;31.62;97091.69;4950001;28;20058;-80
2023/09/06 11:08:22;;;;;;;0.10;0.10;;;;;;;35.78;31.57;97091.28;4946483;28;20560;-80
2023/09/06 11:11:10;;;;;;;0.10;0.10;;;;;;;34.32;29.73;97083.31;4946750;28;20054;-80
2023/09/06 11:14:01;;;;;;;0.10;0.10;;;;;;;34.99;29.58;97082.06;4946570;28;20059;-80
2023/09/06 11:16:47;;;;;;;0.10;0.10;;;;;;;35.90;28.52;97085.34;4947964;28;20099;-80
2023/09/06 11:19:35;;;;;;;0.10;0.10;;;;;;;35.63;28.53;97076.59;4932455;28;20070;-81
2023/09/06 11:22:21;;;;;;;0.10;0.10;;;;;;;36.08;26.64;97090.88;4934686;28;20046;-79
2023/09/06 11:25:17;;;;;;;0.10;0.10;;;;;;;37.08;27.36;97075.41;4951268;28;20118;-80
2023/09/06 11:28:15;;;;;;;0.10;0.10;;;;;;;37.02;26.05;97084.59;4950919;28;20522;-80
2023/09/06 11:31:04;;;;;;;0.10;0.10;;;;;;;37.60;27.15;97075.47;4947784;28;20050;-80
2023/09/06 11:33:55;;;;;;;0.10;0.10;;;;;;;38.68;23.81;97089.94;4949407;28;20041;-80
2023/09/06 11:36:41;;;;;;;0.10;0.10;;;;;;;37.76;25.74;97082.50;4948941;28;20043;-81
2023/09/06 11:39:29;;;;;;;0.10;0.10;;;;;;;38.40;24.93;97079.09;4949057;28;20046;-80
2023/09/06 11:42:16;;;;;;;0.10;0.10;;;;;;;40.26;22.34;97068.75;4948113;28;20647;-80
2023/09/06 11:45:06;;;;;;;0.10;0.10;;;;;;;38.39;23.43;97071.94;4936398;28;20134;-80
2023/09/06 11:47:53;;;;;;;;;;;;;;;38.73;22.91;97075.50;4949326;28;20525;-80
2023/09/06 11:50:40;;;;;;;0.10;0.10;;;;;;;36.99;23.88;97074.28;4936427;28;19972;-81
2023/09/06 11:53:31;;;;;;;0.10;0.10;;;;;;;37.54;23.42;97076.31;4944728;28;20057;-81
2023/09/06 11:56:21;;;;;;;0.10;0.10;;;;;;;38.73;22.54;97060.75;4943878;28;20708;-80
2023/09/06 11:59:12;;;;;;;0.00;0.00;;;;;;;37.25;23.33;97070.09;4946151;28;20079;-81
2023/09/06 12:01:59;;;;;;;0.10;0.10;;;;;;;38.62;22.86;97066.44;4767679;28;20462;-80
2023/09/06 12:04:59;;;;;;;0.10;0.10;;;;;;;38.76;22.63;97067.50;4773941;28;20035;-80
2023/09/06 12:07:45;;;;;;;0.10;0.10;;;;;;;39.23;22.38;97057.28;4737588;28;20553;-81
2023/09/06 12:10:34;;;;;;;0.10;0.10;;;;;;;38.57;22.40;97060.53;4773330;28;20112;-80
2023/09/06 12:13:37;;;;;;;0.10;0.10;;;;;;;38.11;23.41;97067.41;4918785;28;20046;-81
2023/09/06 12:16:23;;;;;;;0.10;0.10;;;;;;;39.92;22.12;97052.91;4947636;28;20430;-81
2023/09/06 12:19:13;;;;;;;0.10;0.10;;;;;;;41.03;20.97;97057.16;4944064;28;20043;-80
2023/09/06 12:22:01;;;;;;;0.08;0.08;;;;;;;42.77;21.26;97048.25;4945347;28;20575;-81
2023/09/06 12:24:48;;;;;;;0.10;0.10;;;;;;;42.11;19.19;97053.31;4946479;28;20051;-81
2023/09/06 12:27:34;;;;;;;0.10;0.10;;;;;;;39.83;20.68;97050.69;4946539;28;20050;-80
2023/09/06 12:30:20;;;;;;;0.10;0.10;;;;;;;39.11;21.26;97058.63;4945935;28;20038;-81
2023/09/06 12:33:06;;;;;;;0.10;0.10;;;;;;;39.33;21.76;97050.72;4933139;28;20045;-81
2023/09/06 12:36:03;;;;;;;0.10;0.10;;;;;;;38.66;23.34;97046.81;4936460;28;20047;-82
2023/09/06 12:38:51;;;;;;;0.10;0.10;;;;;;;39.59;21.66;97051.13;4934156;28;20043;-82
2023/09/06 12:52:06;;;;;;;0.10;0.10;;;;;;;41.80;21.56;97036.06;5098728;27;1312381;-81
2023/09/06 12:54:53;;;;;;;0.10;0.10;;;;;;;42.10;20.51;97028.44;5140864;27;20039;-80
2023/09/06 12:57:39;;;;;;;0.10;0.10;;;;;;;41.03;20.35;97036.72;5143283;27;20573;-80
2023/09/06 13:00:26;;;;;;;0.17;0.17;;;;;;;41.20;20.18;97030.69;5134906;27;20038;-80
2023/09/06 13:03:12;;;;;;;0.10;0.10;;;;;;;41.24;20.20;97038.22;5094064;27;20714;-80
2023/09/06 13:06:01;;;;;;;0.10;0.10;;;;;;;40.46;20.43;97029.50;5130934;27;20609;-80
2023/09/06 13:08:50;;;;;;;0.10;0.10;;;;;;;39.48;22.22;97032.47;5125477;27;20534;-81
2023/09/06 13:11:36;;;;;;;0.20;0.20;;;;;;;41.54;20.33;97018.25;5128654;27;20105;-81